Time;durP1;ratioP1;P1;durP2;ratioP2;P2;SDS_P1;SDS_P2;PMS_P1;PMS_P2;Temp;Humidity;BMP_temperature;BMP_pressure;BME280_temperature;BME280_humidity;BME280_pressure;Samples;Min_cycle;Max_cycle;Signal;HPM_P1;HPM_P2
2022/11/06 00:02:12;;;;;;;;;;;;;;;18.41;67.10;101206.90;2379679;73;50611;-76
2022/11/06 00:08:34;;;;;;;;;;;;;;;18.40;67.11;101217.30;2346788;75;22445;-77
2022/11/06 00:11:36;;;;;;;;;;;;;;;18.39;67.12;101205.72;2369954;74;51609;-76
2022/11/06 00:14:37;;;;;;;;;;;;;;;18.38;67.13;101202.71;2369818;74;50363;-75
2022/11/06 00:17:39;;;;;;;;;;;;;;;18.39;67.13;101204.88;2331687;74;51202;-76
2022/11/06 00:20:41;;;;;;;;;;;;;;;18.40;67.10;101203.39;2370069;74;50335;-76
2022/11/06 00:23:42;;;;;;;;;;;;;;;18.37;67.08;101207.75;2341508;75;50762;-77
2022/11/06 00:26:44;;;;;;;;;;;;;;;18.38;67.12;101201.38;2370068;74;50386;-77
2022/11/06 00:29:45;;;;;;;;;;;;;;;18.37;67.14;101199.71;2351939;73;50067;-76
2022/11/06 00:32:47;;;;;;;;;;;;;;;18.35;67.17;101188.31;2382797;73;50752;-76
2022/11/06 00:35:48;;;;;;;;;;;;;;;18.36;67.07;101195.84;2411533;73;51407;-76
2022/11/06 00:38:54;;;;;;;;;;;;;;;18.36;67.15;101199.36;2381786;73;51535;-76
2022/11/06 00:41:55;;;;;;;;;;;;;;;18.36;67.08;101203.88;2382213;73;49558;-76
2022/11/06 00:44:57;;;;;;;;;;;;;;;18.33;67.19;101203.72;2381718;73;50843;-76
2022/11/06 00:47:58;;;;;;;;;;;;;;;18.32;67.16;101187.32;2411493;73;51450;-76
2022/11/06 00:51:13;;;;;;;;;;;;;;;18.34;67.20;101193.83;2381925;73;51542;-76
2022/11/06 00:54:15;;;;;;;;;;;;;;;18.29;67.24;101193.02;2381247;73;51023;-76
2022/11/06 00:57:16;;;;;;;;;;;;;;;18.32;67.25;101203.39;2381905;73;50470;-76
2022/11/06 01:00:19;;;;;;;;;;;;;;;18.34;67.24;101202.73;2379381;74;50115;-76
2022/11/06 01:03:20;;;;;;;;;;;;;;;18.33;67.10;101193.00;2356771;74;50672;-76
2022/11/06 01:06:23;;;;;;;;;;;;;;;18.35;67.01;101196.36;2383720;74;50956;-76
2022/11/06 01:09:25;;;;;;;;;;;;;;;18.33;67.13;101193.00;2409782;74;50256;-77
2022/11/06 01:12:27;;;;;;;;;;;;;;;18.32;67.16;101200.72;2409928;74;50684;-77
2022/11/06 01:15:29;;;;;;;;;;;;;;;18.31;67.10;101193.66;2359052;74;53718;-77
2022/11/06 01:18:30;;;;;;;;;;;;;;;18.31;67.18;101200.36;2414364;73;50982;-76
2022/11/06 01:21:33;;;;;;;;;;;;;;;18.30;67.18;101195.19;2388009;73;51425;-77
2022/11/06 01:24:35;;;;;;;;;;;;;;;18.26;67.11;101196.02;2413247;73;52463;-76
2022/11/06 01:27:36;;;;;;;;;;;;;;;18.24;67.28;101185.98;2414112;73;50426;-76
2022/11/06 01:30:38;;;;;;;;;;;;;;;18.23;67.33;101180.28;2411702;73;50396;-77
2022/11/06 01:33:40;;;;;;;;;;;;;;;18.22;67.30;101182.13;2381202;74;50336;-76
2022/11/06 01:36:41;;;;;;;;;;;;;;;18.27;67.23;101174.94;2410848;74;50231;-76
2022/11/06 01:39:43;;;;;;;;;;;;;;;18.26;67.23;101163.39;2382130;74;50402;-76
2022/11/06 01:42:44;;;;;;;;;;;;;;;18.28;67.22;101165.87;2409600;73;50070;-76
2022/11/06 01:45:50;;;;;;;;;;;;;;;18.27;67.12;101158.86;2393067;73;50856;-76
2022/11/06 01:48:53;;;;;;;;;;;;;;;18.27;67.15;101167.73;2396052;73;50733;-76
2022/11/06 01:51:56;;;;;;;;;;;;;;;18.25;67.23;101167.05;2375469;74;50644;-76
2022/11/06 01:55:00;;;;;;;;;;;;;;;18.26;67.17;101158.03;2391983;73;51991;-76
2022/11/06 01:58:01;;;;;;;;;;;;;;;18.26;67.19;101154.48;2419265;73;50800;-76
2022/11/06 02:01:03;;;;;;;;;;;;;;;18.23;67.13;101147.62;2413547;73;51483;-76
2022/11/06 02:04:12;;;;;;;;;;;;;;;18.23;67.22;101143.61;2413932;73;51496;-77
2022/11/06 02:07:14;;;;;;;;;;;;;;;18.25;67.12;101150.15;2403596;73;52677;-77
2022/11/06 02:10:15;;;;;;;;;;;;;;;18.24;67.08;101146.64;2412121;73;51556;-77
2022/11/06 02:13:25;;;;;;;;;;;;;;;18.22;67.02;101139.27;2411871;73;50799;-77
2022/11/06 02:16:28;;;;;;;;;;;;;;;18.23;67.09;101130.72;2410598;73;51724;-77
2022/11/06 02:19:40;;;;;;;;;;;;;;;18.21;67.14;101130.05;2399268;73;52617;-77
2022/11/06 02:22:59;;;;;;;;;;;;;;;18.20;67.13;101125.71;2384035;73;50373;-77
2022/11/06 02:26:02;;;;;;;;;;;;;;;18.21;67.13;101126.03;2385670;73;51549;-76
2022/11/06 02:29:05;;;;;;;;;;;;;;;18.22;67.10;101123.70;2372800;73;50727;-76
2022/11/06 02:32:08;;;;;;;;;;;;;;;18.20;67.10;101120.36;2367739;73;50137;-76
2022/11/06 02:35:18;;;;;;;;;;;;;;;18.18;67.08;101114.33;2344486;75;51581;-76
2022/11/06 02:38:21;;;;;;;;;;;;;;;18.18;67.02;101115.66;2344983;75;51650;-76
2022/11/06 02:41:24;;;;;;;;;;;;;;;18.19;66.93;101120.03;2345319;75;52328;-76
2022/11/06 02:44:26;;;;;;;;;;;;;;;18.20;67.00;101117.67;2332863;75;50076;-76
2022/11/06 02:47:28;;;;;;;;;;;;;;;18.19;67.00;101121.37;2369963;75;51455;-76
2022/11/06 02:50:30;;;;;;;;;;;;;;;18.18;66.99;101123.19;2369799;75;50679;-76
2022/11/06 02:53:32;;;;;;;;;;;;;;;18.19;67.02;101121.37;2369682;75;50485;-77
2022/11/06 02:56:34;;;;;;;;;;;;;;;18.17;67.05;101115.34;2342211;75;51268;-77
2022/11/06 02:59:37;;;;;;;;;;;;;;;18.16;67.00;101114.52;2393503;73;51564;-77
2022/11/06 03:02:41;;;;;;;;;;;;;;;18.16;66.99;101119.00;2410891;73;51487;-77
2022/11/06 03:05:44;;;;;;;;;;;;;;;18.16;67.03;101119.00;2385929;73;50412;-76
2022/11/06 03:08:53;;;;;;;;;;;;;;;18.14;67.12;101121.04;2353078;75;51905;-77
2022/11/06 03:12:13;;;;;;;;;;;;;;;18.13;66.92;101112.66;2383110;73;50784;-77
2022/11/06 03:15:29;;;;;;;;;;;;;;;18.14;66.85;101108.48;2368147;75;51584;-77
2022/11/06 03:18:37;;;;;;;;;;;;;;;18.15;66.80;101114.67;2375893;72;50508;-77
2022/11/06 03:21:41;;;;;;;;;;;;;;;18.15;66.78;101117.34;2407440;73;51858;-77
2022/11/06 03:25:01;;;;;;;;;;;;;;;18.14;66.70;101117.02;2414505;73;51543;-77
2022/11/06 03:28:04;;;;;;;;;;;;;;;18.13;66.67;101118.01;2407916;73;50437;-77
2022/11/06 03:31:07;;;;;;;;;;;;;;;18.14;66.67;101108.98;2403313;73;50470;-77
2022/11/06 03:34:09;;;;;;;;;;;;;;;18.12;66.68;101102.45;2409906;74;51114;-78
2022/11/06 03:37:16;;;;;;;;;;;;;;;18.12;66.69;101102.95;2410629;74;50277;-77
2022/11/06 03:40:18;;;;;;;;;;;;;;;18.11;66.55;101116.86;2409554;74;49927;-77
2022/11/06 03:43:20;;;;;;;;;;;;;;;18.11;66.57;101114.18;2410345;74;51544;-77
2022/11/06 03:46:23;;;;;;;;;;;;;;;18.13;66.60;101113.99;2410225;74;50111;-77
2022/11/06 03:49:27;;;;;;;;;;;;;;;18.13;66.57;101113.99;2410562;74;51495;-77
2022/11/06 03:52:30;;;;;;;;;;;;;;;18.13;66.56;101108.13;2410514;74;50770;-77
2022/11/06 03:55:33;;;;;;;;;;;;;;;18.11;66.54;101100.79;2408899;74;50764;-77
2022/11/06 03:58:36;;;;;;;;;;;;;;;18.12;66.56;101098.94;2409889;73;51011;-77
2022/11/06 04:01:41;;;;;;;;;;;;;;;18.12;66.47;101096.27;2386810;73;51529;-78
2022/11/06 04:04:45;;;;;;;;;;;;;;;18.11;66.64;101102.61;2368785;75;51661;-77
2022/11/06 04:14:27;;;;;;;;;;;;;;;18.08;66.52;101090.39;2369133;75;22344;-76
2022/11/06 04:17:28;;;;;;;;;;;;;;;18.08;66.52;101086.88;2368937;75;50347;-76
2022/11/06 04:27:35;;;;;;;;;;;;;;;18.08;66.14;101084.20;2369267;75;23472;-77
2022/11/06 04:30:47;;;;;;;;;;;;;;;18.10;65.95;101083.54;2401705;73;50441;-77
2022/11/06 04:34:00;;;;;;;;;;;;;;;18.11;66.18;101078.50;2426782;73;51575;-76
2022/11/06 04:37:19;;;;;;;;;;;;;;;18.14;66.46;101076.85;2407090;73;49597;-77
2022/11/06 04:40:25;;;;;;;;;;;;;;;18.18;66.53;101072.30;2428165;73;51526;-77
2022/11/06 04:43:37;;;;;;;;;;;;;;;18.28;66.54;101084.17;2428036;73;50669;-77
2022/11/06 04:46:40;;;;;;;;;;;;;;;18.35;66.40;101089.70;2427413;73;51725;-76
2022/11/06 04:49:42;;;;;;;;;;;;;;;18.43;66.18;101085.15;2388609;73;51787;-77
2022/11/06 04:52:43;;;;;;;;;;;;;;;18.52;66.01;101086.46;2428273;73;51598;-77
2022/11/06 04:55:48;;;;;;;;;;;;;;;18.60;65.78;101086.43;2427951;73;51483;-77
2022/11/06 04:58:50;;;;;;;;;;;;;;;18.66;65.57;101083.08;2428193;73;50384;-77
2022/11/06 05:01:51;;;;;;;;;;;;;;;18.69;65.49;101078.20;2402067;73;50053;-74
2022/11/06 05:04:53;;;;;;;;;;;;;;;18.70;65.43;101070.50;2374375;73;50439;-74
2022/11/06 05:07:55;;;;;;;;;;;;;;;18.70;65.48;101068.30;2387927;73;50346;-77
2022/11/06 05:10:56;;;;;;;;;;;;;;;18.67;65.56;101057.94;2382388;73;50710;-77
2022/11/06 05:13:58;;;;;;;;;;;;;;;18.66;65.54;101058.95;2381277;73;50953;-76
2022/11/06 05:16:59;;;;;;;;;;;;;;;18.62;65.65;101067.00;2387533;73;52370;-77
2022/11/06 05:20:01;;;;;;;;;;;;;;;18.59;65.75;101071.37;2377380;73;51434;-77
2022/11/06 05:23:02;;;;;;;;;;;;;;;18.54;65.88;101063.02;2393506;73;50714;-77
2022/11/06 05:26:05;;;;;;;;;;;;;;;18.55;65.95;101058.83;2412658;73;50343;-76
2022/11/06 05:29:06;;;;;;;;;;;;;;;18.59;65.86;101066.02;2394147;73;50771;-76
2022/11/06 05:32:08;;;;;;;;;;;;;;;18.65;65.79;101074.69;2343080;74;50708;-77
2022/11/06 05:35:09;;;;;;;;;;;;;;;18.71;65.61;101072.67;2412922;73;50446;-76
2022/11/06 05:38:11;;;;;;;;;;;;;;;18.69;65.61;101066.64;2392368;73;50461;-76
2022/11/06 05:41:13;;;;;;;;;;;;;;;18.69;65.59;101066.64;2414667;73;51125;-77
2022/11/06 05:44:14;;;;;;;;;;;;;;;18.67;65.61;101055.25;2413990;73;50366;-76
2022/11/06 05:47:16;;;;;;;;;;;;;;;18.66;65.64;101057.62;2387998;73;50419;-76
2022/11/06 05:50:17;;;;;;;;;;;;;;;18.64;65.65;101064.98;2362191;73;50075;-77
2022/11/06 05:53:19;;;;;;;;;;;;;;;18.58;65.80;101061.67;2417126;73;50705;-77
2022/11/06 05:56:21;;;;;;;;;;;;;;;18.50;65.97;101067.38;2414478;73;51431;-77
2022/11/06 05:59:22;;;;;;;;;;;;;;;18.49;66.06;101067.55;2382685;73;51528;-77
2022/11/06 06:02:24;;;;;;;;;;;;;;;18.49;66.14;101069.71;2294119;76;52460;-76
2022/11/06 06:05:25;;;;;;;;;;;;;;;18.56;66.06;101073.06;2304318;76;50412;-73
2022/11/06 06:08:27;;;;;;;;;;;;;;;18.62;65.91;101066.48;2301686;76;50760;-77
2022/11/06 06:11:28;;;;;;;;;;;;;;;18.64;65.84;101068.50;2327788;76;50381;-77
2022/11/06 06:14:30;;;;;;;;;;;;;;;18.68;65.69;101069.84;2330049;76;50052;-77
2022/11/06 06:17:32;;;;;;;;;;;;;;;18.69;65.66;101072.00;2327627;76;51727;-77
2022/11/06 06:20:33;;;;;;;;;;;;;;;18.68;65.65;101069.84;2327499;76;50815;-77
2022/11/06 06:23:35;;;;;;;;;;;;;;;18.66;65.70;101075.04;2327253;76;50742;-77
2022/11/06 06:26:36;;;;;;;;;;;;;;;18.63;65.75;101070.86;2329540;76;51052;-76
2022/11/06 06:29:38;;;;;;;;;;;;;;;18.58;65.84;101068.38;2324642;74;51489;-76
2022/11/06 06:32:40;;;;;;;;;;;;;;;18.52;66.01;101068.53;2405690;73;51491;-77
2022/11/06 06:35:41;;;;;;;;;;;;;;;18.47;66.21;101077.11;2387845;73;51495;-76
2022/11/06 06:38:43;;;;;;;;;;;;;;;18.49;66.25;101081.77;2360437;73;50990;-76
2022/11/06 06:41:44;;;;;;;;;;;;;;;18.55;66.20;101086.11;2413940;73;51471;-75
2022/11/06 06:44:46;;;;;;;;;;;;;;;18.64;65.98;101083.75;2413666;73;50602;-75
2022/11/06 06:47:48;;;;;;;;;;;;;;;18.71;65.75;101087.42;2413851;73;49921;-76
2022/11/06 06:50:49;;;;;;;;;;;;;;;18.72;65.64;101084.55;2413877;73;50386;-74
2022/11/06 06:53:51;;;;;;;;;;;;;;;18.75;65.56;101090.58;2387737;73;50783;-75
2022/11/06 06:56:52;;;;;;;;;;;;;;;18.71;65.56;101084.73;2413966;73;51443;-75
2022/11/06 06:59:54;;;;;;;;;;;;;;;18.70;65.61;101088.41;2396412;73;51630;-76
2022/11/06 07:02:56;;;;;;;;;;;;;;;18.66;65.71;101087.93;2314103;74;51006;-76
2022/11/06 07:05:57;;;;;;;;;;;;;;;18.64;65.82;101091.28;2339691;75;51437;-76
2022/11/06 07:08:59;;;;;;;;;;;;;;;18.57;65.96;101088.95;2367618;75;50764;-76
2022/11/06 07:12:01;;;;;;;;;;;;;;;18.55;66.11;101088.80;2340009;74;50706;-76
2022/11/06 07:15:02;;;;;;;;;;;;;;;18.57;66.18;101097.50;2313062;75;52530;-75
2022/11/06 07:18:04;;;;;;;;;;;;;;;18.64;66.13;101101.17;2339961;74;50726;-75
2022/11/06 07:21:06;;;;;;;;;;;;;;;18.72;65.94;101095.78;2367158;75;50688;-75
2022/11/06 07:24:08;;;;;;;;;;;;;;;18.80;65.77;101094.44;2339529;74;52235;-75
2022/11/06 07:27:10;;;;;;;;;;;;;;;18.84;65.66;101100.30;2312765;75;49147;-75
2022/11/06 07:30:11;;;;;;;;;;;;;;;18.84;65.58;101098.97;2333563;73;50921;-75
2022/11/06 07:33:13;;;;;;;;;;;;;;;18.84;65.57;101093.09;2333312;75;50182;-75
2022/11/06 07:36:15;;;;;;;;;;;;;;;18.83;65.59;101093.25;2359972;75;50265;-76
2022/11/06 07:39:16;;;;;;;;;;;;;;;18.80;65.65;101082.88;2310053;75;49594;-76
2022/11/06 07:42:18;;;;;;;;;;;;;;;18.77;65.72;101082.72;2335503;75;51516;-75
2022/11/06 07:45:19;;;;;;;;;;;;;;;18.73;65.79;101086.75;2360579;75;51446;-75
2022/11/06 07:48:21;;;;;;;;;;;;;;;18.72;65.90;101088.56;2336121;75;50752;-76
2022/11/06 07:51:23;;;;;;;;;;;;;;;18.72;65.95;101089.08;2336091;75;51486;-75
2022/11/06 07:54:24;;;;;;;;;;;;;;;18.78;65.88;101083.55;2336003;75;50099;-76
2022/11/06 07:57:26;;;;;;;;;;;;;;;18.80;65.79;101083.70;2335613;75;51509;-76
2022/11/06 08:00:28;;;;;;;;;;;;;;;18.80;65.82;101077.52;2380043;74;52442;-72
2022/11/06 08:03:29;;;;;;;;;;;;;;;18.80;65.85;101077.01;2340045;74;51504;-73
2022/11/06 08:06:31;;;;;;;;;;;;;;;18.80;65.90;101082.38;2315057;75;51138;-73
2022/11/06 08:09:32;;;;;;;;;;;;;;;18.80;65.88;101073.50;2326545;75;51511;-72
2022/11/06 08:12:34;;;;;;;;;;;;;;;18.80;65.83;101075.66;2343589;73;51507;-73
2022/11/06 08:15:39;;;;;;;;;;;;;;;18.80;65.82;101078.86;2383006;73;52343;-72
2022/11/06 08:18:40;;;;;;;;;;;;;;;18.75;65.72;101080.71;2388325;73;51045;-73
2022/11/06 08:21:42;;;;;;;;;;;;;;;18.70;65.88;101079.89;2330240;75;50354;-73
2022/11/06 08:24:43;;;;;;;;;;;;;;;18.75;65.81;101080.71;2304162;76;50280;-73
2022/11/06 08:27:45;;;;;;;;;;;;;;;18.79;65.91;101075.34;2375481;73;50664;-77
2022/11/06 08:30:47;;;;;;;;;;;;;;;18.82;65.68;101061.59;2352675;74;50726;-75
2022/11/06 08:33:48;;;;;;;;;;;;;;;18.84;65.66;101072.98;2370092;74;51534;-74
2022/11/06 08:36:51;;;;;;;;;;;;;;;18.84;65.66;101066.28;2354300;74;51532;-73
2022/11/06 08:39:52;;;;;;;;;;;;;;;18.82;65.45;101073.66;2356541;75;50514;-74
2022/11/06 08:42:55;;;;;;;;;;;;;;;18.82;65.54;101073.66;2348725;74;51653;-76
2022/11/06 08:45:58;;;;;;;;;;;;;;;18.83;65.62;101064.62;2356596;75;50814;-75
2022/11/06 08:48:59;;;;;;;;;;;;;;;18.83;65.71;101057.92;2326724;75;50442;-76
2022/11/06 08:52:01;;;;;;;;;;;;;;;18.82;65.49;101056.23;2371379;75;50403;-76
2022/11/06 08:55:03;;;;;;;;;;;;;;;18.83;65.57;101051.22;2366952;75;50689;-76
2022/11/06 08:58:04;;;;;;;;;;;;;;;18.80;65.57;101042.67;2337115;74;50252;-75
2022/11/06 09:01:06;;;;;;;;;;;;;;;18.79;65.49;101041.84;2346081;73;50440;-76
2022/11/06 09:04:08;;;;;;;;;;;;;;;18.78;65.48;101041.52;2363924;73;50390;-75
2022/11/06 09:07:09;;;;;;;;;;;;;;;18.77;65.58;101045.19;2384621;73;51530;-76
2022/11/06 09:10:11;;;;;;;;;;;;;;;18.79;65.77;101047.71;2388763;73;50730;-76
2022/11/06 09:13:13;;;;;;;;;;;;;;;18.77;65.76;101043.02;2401427;73;51506;-76
2022/11/06 09:16:14;;;;;;;;;;;;;;;18.74;65.84;101047.36;2345007;75;51700;-76
2022/11/06 09:19:16;;;;;;;;;;;;;;;18.70;65.88;101040.16;2344849;75;49557;-76
2022/11/06 09:22:17;;;;;;;;;;;;;;;18.67;65.93;101045.88;2345011;75;50371;-75
2022/11/06 09:25:19;;;;;;;;;;;;;;;18.59;66.15;101044.57;2369810;75;50319;-75
2022/11/06 09:28:21;;;;;;;;;;;;;;;18.60;66.11;101042.20;2369955;75;51491;-76
2022/11/06 09:31:22;;;;;;;;;;;;;;;18.65;65.93;101047.41;2333527;73;51153;-76
2022/11/06 09:34:24;;;;;;;;;;;;;;;18.67;65.88;101044.53;2353706;74;50417;-76
2022/11/06 09:37:25;;;;;;;;;;;;;;;18.69;65.75;101045.20;2370214;74;50288;-76
2022/11/06 09:40:29;;;;;;;;;;;;;;;18.67;65.72;101044.53;2360846;74;50719;-76
2022/11/06 09:43:32;;;;;;;;;;;;;;;18.66;65.74;101054.94;2336014;73;50251;-75
2022/11/06 09:46:41;;;;;;;;;;;;;;;18.64;65.75;101048.39;2411292;73;50646;-75
2022/11/06 09:49:44;;;;;;;;;;;;;;;18.62;65.76;101048.23;2413022;73;52382;-75
2022/11/06 09:52:50;;;;;;;;;;;;;;;18.58;65.85;101041.57;2414291;73;51579;-76
2022/11/06 09:55:53;;;;;;;;;;;;;;;18.56;65.96;101048.95;2414007;73;51485;-76
2022/11/06 09:58:54;;;;;;;;;;;;;;;18.63;65.77;101040.55;2410733;73;50407;-76
2022/11/06 10:01:57;;;;;;;;;;;;;;;18.72;65.54;101045.67;2367373;75;50410;-77
2022/11/06 10:05:09;;;;;;;;;;;;;;;18.83;65.19;101049.88;2365552;73;51596;-76
2022/11/06 10:08:12;;;;;;;;;;;;;;;18.81;65.26;101043.84;2388054;73;51214;-77
2022/11/06 10:11:15;;;;;;;;;;;;;;;18.82;65.29;101044.16;2397095;73;50798;-77
2022/11/06 10:14:28;;;;;;;;;;;;;;;18.79;65.39;101028.44;2396227;73;51563;-76
2022/11/06 10:17:47;;;;;;;;;;;;;;;18.77;65.43;101033.13;2414303;73;50405;-76
2022/11/06 10:20:50;;;;;;;;;;;;;;;18.74;65.40;101026.75;2413947;73;51544;-77
2022/11/06 10:23:54;;;;;;;;;;;;;;;18.71;65.34;101028.45;2413638;73;51696;-75
2022/11/06 10:26:56;;;;;;;;;;;;;;;18.70;65.07;101020.05;2413864;73;51469;-76
2022/11/06 10:29:59;;;;;;;;;;;;;;;18.69;64.69;101013.03;2413731;73;51567;-76
2022/11/06 10:33:02;;;;;;;;;;;;;;;18.68;64.71;101012.72;2387570;73;49298;-76
2022/11/06 10:36:12;;;;;;;;;;;;;;;18.72;64.65;101014.85;2382615;73;50453;-77
2022/11/06 10:39:15;;;;;;;;;;;;;;;18.75;64.55;101006.99;2410275;73;50682;-77
2022/11/06 10:42:18;;;;;;;;;;;;;;;18.75;64.43;101004.31;2389122;73;51491;-77
2022/11/06 10:45:19;;;;;;;;;;;;;;;18.74;64.36;100997.27;2379633;73;50394;-76
2022/11/06 10:48:23;;;;;;;;;;;;;;;18.73;64.26;100995.60;2413947;73;50223;-78
2022/11/06 10:51:42;;;;;;;;;;;;;;;18.71;64.17;101002.98;2411799;73;50461;-75
2022/11/06 10:55:03;;;;;;;;;;;;;;;18.67;64.04;100982.88;2413195;73;50268;-75
2022/11/06 10:58:05;;;;;;;;;;;;;;;18.66;63.78;100988.76;2414206;73;50680;-75
2022/11/06 11:01:08;;;;;;;;;;;;;;;18.65;63.42;100987.58;2413857;73;50298;-76
2022/11/06 11:04:10;;;;;;;;;;;;;;;18.63;63.14;100974.88;2413896;73;50426;-76
2022/11/06 11:07:15;;;;;;;;;;;;;;;18.62;62.78;100973.19;2387875;73;50397;-76
2022/11/06 11:10:24;;;;;;;;;;;;;;;18.64;62.55;100963.14;2382199;73;51703;-77
2022/11/06 11:13:25;;;;;;;;;;;;;;;18.68;62.20;100965.81;2386709;73;51574;-77
2022/11/06 11:16:28;;;;;;;;;;;;;;;18.74;61.96;100966.44;2394686;73;51500;-78
2022/11/06 11:19:36;;;;;;;;;;;;;;;18.74;61.69;100963.75;2414190;73;51578;-77
2022/11/06 11:22:37;;;;;;;;;;;;;;;18.72;61.51;100956.39;2360616;73;52426;-76
2022/11/06 11:25:39;;;;;;;;;;;;;;;18.69;61.35;100952.21;2387431;73;51425;-79
2022/11/06 11:28:41;;;;;;;;;;;;;;;18.66;61.18;100939.69;2342544;74;50486;-74
2022/11/06 11:31:44;;;;;;;;;;;;;;;18.64;61.01;100939.02;2379347;74;50368;-75
2022/11/06 11:34:46;;;;;;;;;;;;;;;18.64;60.62;100939.02;2344062;74;51327;-74
2022/11/06 11:37:48;;;;;;;;;;;;;;;18.61;60.81;100942.05;2379454;74;51444;-74
2022/11/06 11:40:50;;;;;;;;;;;;;;;18.58;61.19;100935.72;2379380;74;51514;-73
2022/11/06 11:44:08;;;;;;;;;;;;;;;18.58;61.41;100935.72;2361627;74;51527;-74
2022/11/06 11:47:12;;;;;;;;;;;;;;;18.64;61.43;100935.00;2366130;73;52583;-75
2022/11/06 11:50:18;;;;;;;;;;;;;;;18.72;61.30;100926.91;2394480;73;51478;-74
2022/11/06 11:53:20;;;;;;;;;;;;;;;18.80;61.14;100918.83;2402971;73;50458;-74
2022/11/06 11:56:22;;;;;;;;;;;;;;;18.78;61.26;100922.22;2414123;73;51476;-74
2022/11/06 11:59:28;;;;;;;;;;;;;;;18.80;61.24;100918.83;2386415;73;50152;-74
2022/11/06 12:02:30;;;;;;;;;;;;;;;18.79;61.28;100907.80;2412495;73;50952;-75
2022/11/06 12:05:36;;;;;;;;;;;;;;;18.81;61.50;100912.48;2411761;73;52506;-76
2022/11/06 12:08:39;;;;;;;;;;;;;;;18.84;61.68;100905.92;2414238;73;50299;-77
2022/11/06 12:11:41;;;;;;;;;;;;;;;18.80;62.12;100908.63;2387885;73;51516;-74
2022/11/06 12:14:43;;;;;;;;;;;;;;;18.80;62.48;100901.41;2413963;73;50472;-78
2022/11/06 12:17:46;;;;;;;;;;;;;;;18.83;62.59;100884.13;2414322;73;51520;-77
2022/11/06 12:20:58;;;;;;;;;;;;;;;18.82;62.50;100880.63;2392513;73;50717;-76
2022/11/06 12:24:04;;;;;;;;;;;;;;;18.89;62.10;100872.71;2294943;75;51390;-75
2022/11/06 12:27:10;;;;;;;;;;;;;;;18.92;61.95;100880.39;2354942;75;49880;-77
2022/11/06 12:30:12;;;;;;;;;;;;;;;18.87;62.06;100874.22;2355182;75;50450;-77
2022/11/06 12:33:15;;;;;;;;;;;;;;;18.82;62.22;100865.88;2343542;75;51578;-74
2022/11/06 12:36:18;;;;;;;;;;;;;;;18.84;62.18;100865.71;2280188;77;49596;-76
2022/11/06 12:39:21;;;;;;;;;;;;;;;18.78;62.33;100861.05;2314810;77;50312;-75
2022/11/06 12:42:24;;;;;;;;;;;;;;;18.74;62.43;100859.20;2314637;76;50490;-77
2022/11/06 12:45:28;;;;;;;;;;;;;;;18.74;62.43;100853.84;2323122;75;51534;-77
2022/11/06 12:48:34;;;;;;;;;;;;;;;18.76;62.43;100855.05;2314150;76;51137;-77
2022/11/06 12:51:43;;;;;;;;;;;;;;;18.79;62.37;100860.87;2319944;76;51548;-76
2022/11/06 12:55:03;;;;;;;;;;;;;;;18.82;62.29;100853.81;2325935;75;51500;-77
2022/11/06 12:58:19;;;;;;;;;;;;;;;18.88;62.06;100854.45;2324752;75;51548;-77
2022/11/06 13:01:22;;;;;;;;;;;;;;;18.89;62.05;100848.06;2294424;76;52785;-77
2022/11/06 13:04:25;;;;;;;;;;;;;;;18.86;62.11;100848.44;2314656;76;51557;-77
2022/11/06 13:07:34;;;;;;;;;;;;;;;18.84;62.18;100844.27;2315109;76;51570;-75
2022/11/06 13:10:37;;;;;;;;;;;;;;;18.80;62.23;100843.77;2314789;77;51420;-76
2022/11/06 13:13:41;;;;;;;;;;;;;;;18.79;62.28;100827.88;2290876;77;51077;-77
2022/11/06 13:16:47;;;;;;;;;;;;;;;18.76;62.31;100827.73;2314855;76;50535;-77
2022/11/06 13:19:53;;;;;;;;;;;;;;;18.71;62.49;100836.79;2317188;75;51593;-77
2022/11/06 13:23:05;;;;;;;;;;;;;;;18.66;62.63;100835.16;2316982;76;51632;-76
2022/11/06 13:26:12;;;;;;;;;;;;;;;18.70;62.53;100837.78;2290854;77;53062;-77
2022/11/06 13:29:14;;;;;;;;;;;;;;;18.77;62.33;100829.39;2313772;76;50340;-76
2022/11/06 13:32:16;;;;;;;;;;;;;;;18.85;62.08;100823.13;2314936;76;51694;-76
2022/11/06 13:35:18;;;;;;;;;;;;;;;18.84;62.08;100818.28;2316063;76;50782;-76
2022/11/06 13:38:22;;;;;;;;;;;;;;;18.84;62.07;100807.56;2290762;77;51386;-74
2022/11/06 13:41:25;;;;;;;;;;;;;;;18.85;62.03;100799.83;2315553;75;50703;-75
2022/11/06 13:44:26;;;;;;;;;;;;;;;18.83;62.35;100796.52;2314265;77;51594;-76
2022/11/06 13:47:30;;;;;;;;;;;;;;;18.81;62.72;100797.71;2314015;77;50426;-77
2022/11/06 13:50:33;;;;;;;;;;;;;;;18.84;62.90;100798.69;2267360;76;49839;-75
2022/11/06 13:53:36;;;;;;;;;;;;;;;18.76;64.06;100786.70;2315924;76;50457;-76
2022/11/06 13:56:51;;;;;;;;;;;;;;;18.84;63.21;100780.75;2315472;76;50480;-76
2022/11/06 14:00:13;;;;;;;;;;;;;;;18.89;63.19;100780.20;2322180;76;50457;-75
2022/11/06 14:03:16;;;;;;;;;;;;;;;18.96;62.98;100774.94;2312857;76;49618;-74
2022/11/06 14:06:21;;;;;;;;;;;;;;;18.93;63.01;100781.01;2323333;75;50695;-76
2022/11/06 14:09:24;;;;;;;;;;;;;;;18.92;63.08;100791.39;2323844;76;50418;-76
2022/11/06 14:12:25;;;;;;;;;;;;;;;18.90;63.13;100793.41;2323248;76;51539;-76
2022/11/06 14:15:28;;;;;;;;;;;;;;;18.85;63.20;100795.80;2327795;75;51096;-76
2022/11/06 14:18:30;;;;;;;;;;;;;;;18.82;63.36;100785.45;2355611;75;51597;-76
2022/11/06 14:21:45;;;;;;;;;;;;;;;18.81;63.36;100777.61;2355005;75;50359;-75
2022/11/06 14:24:46;;;;;;;;;;;;;;;18.77;63.44;100771.76;2333466;75;51462;-75
2022/11/06 14:27:50;;;;;;;;;;;;;;;18.74;63.62;100772.09;2338095;75;51027;-76
2022/11/06 14:30:51;;;;;;;;;;;;;;;18.76;63.63;100768.77;2364075;75;51479;-76
2022/11/06 14:33:56;;;;;;;;;;;;;;;18.82;63.52;100767.20;2363690;75;50312;-76
2022/11/06 14:36:58;;;;;;;;;;;;;;;18.90;63.29;100756.39;2364281;75;50300;-75
2022/11/06 14:40:03;;;;;;;;;;;;;;;18.91;63.25;100761.58;2313170;75;51756;-75
2022/11/06 14:43:06;;;;;;;;;;;;;;;18.90;63.18;100754.53;2358009;75;51610;-76
2022/11/06 14:46:21;;;;;;;;;;;;;;;18.90;63.19;100755.87;2345767;74;51600;-74
2022/11/06 14:49:27;;;;;;;;;;;;;;;18.83;63.35;100752.77;2374903;74;51584;-75
2022/11/06 14:52:28;;;;;;;;;;;;;;;18.79;63.46;100757.67;2345795;74;52708;-74
2022/11/06 14:55:32;;;;;;;;;;;;;;;18.78;63.47;100740.41;2391922;74;51493;-75
2022/11/06 14:58:34;;;;;;;;;;;;;;;18.71;63.60;100726.89;2363655;74;50823;-75
2022/11/06 15:01:35;;;;;;;;;;;;;;;18.70;63.78;100727.89;2360326;74;50264;-74
2022/11/06 15:04:37;;;;;;;;;;;;;;;18.72;63.70;100718.66;2334989;75;49672;-74
2022/11/06 15:07:40;;;;;;;;;;;;;;;18.81;63.47;100711.41;2356228;73;50339;-75
2022/11/06 15:10:44;;;;;;;;;;;;;;;18.86;63.32;100709.02;2341102;74;50368;-75
2022/11/06 15:13:45;;;;;;;;;;;;;;;18.89;63.21;100718.54;2330261;75;50448;-75
2022/11/06 15:17:03;;;;;;;;;;;;;;;18.88;63.22;100721.73;2381548;73;51133;-74
2022/11/06 15:20:05;;;;;;;;;;;;;;;18.88;63.20;100726.24;2405283;73;51537;-77
2022/11/06 15:23:08;;;;;;;;;;;;;;;18.80;63.34;100724.48;2410477;73;51650;-73
2022/11/06 15:26:12;;;;;;;;;;;;;;;18.77;63.44;100719.48;2379487;73;51563;-75
2022/11/06 15:29:15;;;;;;;;;;;;;;;18.77;63.45;100714.64;2352185;75;51640;-75
2022/11/06 15:32:18;;;;;;;;;;;;;;;18.72;63.62;100718.66;2373787;73;51419;-73
2022/11/06 15:35:24;;;;;;;;;;;;;;;18.66;63.52;100717.23;2377384;73;50440;-74
2022/11/06 15:38:26;;;;;;;;;;;;;;;18.63;63.85;100717.59;2375914;74;51523;-74
2022/11/06 15:41:28;;;;;;;;;;;;;;;18.81;63.53;100722.14;2352206;75;49645;-74
2022/11/06 15:44:30;;;;;;;;;;;;;;;18.92;63.40;100719.00;2352299;75;52591;-74
2022/11/06 15:47:31;;;;;;;;;;;;;;;19.33;62.28;100715.03;2385661;73;50241;-75
2022/11/06 15:50:34;;;;;;;;;;;;;;;19.75;60.83;100717.53;2384217;73;51535;-74
2022/11/06 15:53:35;;;;;;;;;;;;;;;19.46;61.82;100718.39;2370592;73;49813;-74
2022/11/06 15:56:37;;;;;;;;;;;;;;;19.24;62.51;100719.67;2418793;73;50361;-74
2022/11/06 15:59:38;;;;;;;;;;;;;;;19.14;62.95;100715.09;2419734;73;50736;-74